Time;durP1;ratioP1;P1;durP2;ratioP2;P2;SDS_P1;SDS_P2;PMS_P1;PMS_P2;Temp;Humidity;BMP_temperature;BMP_pressure;BME280_temperature;BME280_humidity;BME280_pressure;Samples;Min_cycle;Max_cycle;Signal;HPM_P1;HPM_P2
2023/02/03 00:00:58;;;;;;;45.73;27.80;;;;;;;7.67;100.00;100865.00;5060518;28;20510;-64
2023/02/03 00:03:25;;;;;;;37.43;24.73;;;;;;;7.78;100.00;100848.25;5061111;28;20956;-64
2023/02/03 00:05:52;;;;;;;39.07;25.00;;;;;;;7.72;100.00;100854.00;5060862;28;20472;-64
2023/02/03 00:08:20;;;;;;;41.50;24.07;;;;;;;7.55;100.00;100852.50;5060367;28;20516;-63
2023/02/03 00:10:47;;;;;;;33.43;23.80;;;;;;;7.72;100.00;100838.03;5075499;28;20468;-64
2023/02/03 00:13:14;;;;;;;42.13;24.27;;;;;;;7.75;100.00;100853.78;5064488;28;20477;-64
2023/02/03 00:15:42;;;;;;;34.67;22.20;;;;;;;7.75;100.00;100850.28;5064996;28;20479;-64
2023/02/03 00:18:09;;;;;;;30.70;22.70;;;;;;;7.80;100.00;100850.81;5061272;28;20440;-64
2023/02/03 00:20:36;;;;;;;36.70;23.23;;;;;;;7.65;100.00;100847.41;5062043;28;20498;-64
2023/02/03 00:23:06;;;;;;;42.47;23.67;;;;;;;7.64;100.00;100851.06;5064622;28;20479;-64
2023/02/03 00:25:32;;;;;;;33.17;24.70;;;;;;;7.75;100.00;100859.13;5069449;28;20503;-63
2023/02/03 00:27:59;;;;;;;41.00;26.33;;;;;;;7.72;100.00;100856.66;5084289;28;20450;-64
2023/02/03 00:30:26;;;;;;;38.60;25.07;;;;;;;7.69;100.00;100839.13;5078849;28;20454;-63
2023/02/03 00:32:54;;;;;;;37.73;25.50;;;;;;;7.60;100.00;100850.38;5064542;28;20929;-62
2023/02/03 00:35:21;;;;;;;37.43;25.77;;;;;;;7.75;100.00;100856.47;5064165;28;20463;-63
2023/02/03 00:37:51;;;;;;;42.30;24.40;;;;;;;7.65;100.00;100844.75;5064181;28;20474;-63
2023/02/03 00:40:18;;;;;;;36.17;24.93;;;;;;;7.59;100.00;100854.00;5067793;28;20509;-63
2023/02/03 00:42:44;;;;;;;36.00;25.70;;;;;;;7.62;100.00;100858.25;5084245;28;20498;-63
2023/02/03 00:45:11;;;;;;;38.53;25.23;;;;;;;7.67;100.00;100856.13;5070426;28;20488;-63
2023/02/03 00:47:38;;;;;;;39.27;25.70;;;;;;;7.80;100.00;100850.81;5065015;28;20435;-63
2023/02/03 00:50:07;;;;;;;39.37;26.20;;;;;;;7.73;100.00;100845.91;5064732;28;20484;-63
2023/02/03 00:52:34;;;;;;;34.10;26.77;;;;;;;7.78;100.00;100853.59;5043373;28;20479;-64
2023/02/03 00:55:00;;;;;;;38.13;25.80;;;;;;;7.77;100.00;100872.31;5044567;28;20468;-64
2023/02/03 00:57:27;;;;;;;40.83;28.93;;;;;;;7.81;100.00;100858.69;5061688;28;20535;-63
2023/02/03 00:59:54;;;;;;;43.20;27.60;;;;;;;7.76;100.00;100859.97;5072571;28;20489;-63
2023/02/03 01:02:21;;;;;;;42.30;27.53;;;;;;;7.63;100.00;100874.13;5082848;28;20485;-63
2023/02/03 01:04:48;;;;;;;46.63;26.30;;;;;;;7.70;100.00;100870.06;5044237;28;20454;-63
2023/02/03 01:07:17;;;;;;;41.27;24.73;;;;;;;7.66;100.00;100873.91;5051794;28;20470;-64
2023/02/03 01:09:43;;;;;;;42.90;26.90;;;;;;;7.68;100.00;100874.66;5064090;28;20467;-63
2023/02/03 01:12:10;;;;;;;40.73;26.70;;;;;;;7.60;100.00;100882.31;5079792;28;20514;-63
2023/02/03 01:14:36;;;;;;;37.33;25.37;;;;;;;7.71;100.00;100868.28;5083295;28;20454;-63
2023/02/03 01:17:03;;;;;;;39.43;27.43;;;;;;;7.70;100.00;100869.22;5083614;28;20509;-64
2023/02/03 01:19:30;;;;;;;34.47;24.80;;;;;;;7.71;100.00;100865.63;5083423;28;20450;-63
2023/02/03 01:21:56;;;;;;;35.33;26.00;;;;;;;7.73;100.00;100869.03;5082298;28;20486;-63
2023/02/03 01:24:24;;;;;;;42.33;25.50;;;;;;;7.63;100.00;100865.28;5083732;28;20522;-64
2023/02/03 01:26:51;;;;;;;36.80;25.33;;;;;;;7.77;100.00;100864.34;5067526;28;20490;-65
2023/02/03 01:29:18;;;;;;;35.77;26.00;;;;;;;7.77;100.00;100859.84;5063341;28;20478;-63
2023/02/03 01:31:45;;;;;;;31.77;23.73;;;;;;;7.72;100.00;100875.28;5062219;28;20528;-63
2023/02/03 01:34:13;;;;;;;31.57;22.83;;;;;;;7.74;100.00;100870.72;5064649;28;20447;-64
2023/02/03 01:36:40;;;;;;;37.53;25.73;;;;;;;7.83;100.00;100866.56;5074788;28;20476;-63
2023/02/03 01:39:06;;;;;;;32.60;23.60;;;;;;;7.71;100.00;100878.94;5083485;28;20484;-64
2023/02/03 01:41:36;;;;;;;37.73;24.33;;;;;;;7.71;100.00;100877.13;5066082;28;21032;-63
2023/02/03 01:44:36;;;;;;;37.00;25.10;;;;;;;7.85;100.00;100870.81;5076008;28;20511;-63
2023/02/03 01:47:03;;;;;;;29.67;22.80;;;;;;;7.81;100.00;100866.69;5069631;28;20655;-64
2023/02/03 01:49:33;;;;;;;33.40;23.37;;;;;;;7.84;100.00;100849.63;5065628;28;20471;-63
2023/02/03 01:52:00;;;;;;;33.77;24.90;;;;;;;7.85;100.00;100862.00;5071665;28;20503;-63
2023/02/03 01:54:30;;;;;;;34.23;24.57;;;;;;;7.81;100.00;100847.19;5062720;28;20577;-64
2023/02/03 01:57:01;;;;;;;34.97;23.57;;;;;;;7.88;100.00;100840.47;5062714;28;20484;-63
2023/02/03 01:59:30;;;;;;;34.10;22.07;;;;;;;7.84;100.00;100846.97;5049361;28;20955;-65
2023/02/03 02:01:57;;;;;;;30.27;21.63;;;;;;;7.74;100.00;100846.75;5074343;28;20551;-64
2023/02/03 02:04:28;;;;;;;33.20;22.10;;;;;;;7.88;100.00;100838.66;5065100;28;20460;-64
2023/02/03 02:06:56;;;;;;;31.50;21.87;;;;;;;7.89;100.00;100829.69;5062245;28;20470;-65
2023/02/03 02:09:23;;;;;;;31.17;22.63;;;;;;;7.72;100.00;100806.97;5077726;28;20482;-64
2023/02/03 02:11:50;;;;;;;31.33;22.17;;;;;;;7.89;100.00;100816.41;5066067;28;20475;-63
2023/02/03 02:14:18;;;;;;;25.70;20.27;;;;;;;7.83;100.00;100803.53;5071803;28;20451;-64
2023/02/03 02:16:49;;;;;;;30.30;20.80;;;;;;;7.73;100.00;100790.03;5068130;28;20501;-63
2023/02/03 02:19:53;;;;;;;29.13;19.60;;;;;;;7.88;100.00;100788.09;5071866;28;20482;-63
2023/02/03 02:22:22;;;;;;;29.50;20.67;;;;;;;7.79;100.00;100787.88;5063384;28;20512;-63
2023/02/03 02:25:03;;;;;;;27.07;21.00;;;;;;;7.80;100.00;100786.94;5080614;28;20944;-63
2023/02/03 02:27:56;;;;;;;27.37;20.50;;;;;;;7.81;100.00;100799.25;5070515;28;20507;-63
2023/02/03 02:30:38;;;;;;;32.87;20.83;;;;;;;7.85;100.00;100790.13;5075149;28;20479;-63
2023/02/03 02:33:11;;;;;;;27.97;19.17;;;;;;;7.90;100.00;100772.00;5069577;28;20511;-64
2023/02/03 02:35:50;;;;;;;24.57;18.60;;;;;;;7.86;100.00;100760.72;5080799;28;20486;-64
2023/02/03 02:38:25;;;;;;;25.43;18.20;;;;;;;7.97;100.00;100751.97;5081701;28;20459;-64
2023/02/03 02:40:55;;;;;;;27.43;18.47;;;;;;;7.85;100.00;100755.50;5081831;28;20919;-64
2023/02/03 02:43:26;;;;;;;25.93;17.97;;;;;;;7.94;100.00;100772.63;5073529;28;20518;-64
2023/02/03 02:45:56;;;;;;;25.47;19.37;;;;;;;7.93;100.00;100782.41;5061776;28;20472;-64
2023/02/03 02:48:28;;;;;;;23.50;18.10;;;;;;;7.97;100.00;100775.94;5062416;28;20896;-64
2023/02/03 02:50:56;;;;;;;22.80;17.13;;;;;;;7.92;100.00;100783.38;5068951;28;20507;-64
2023/02/03 02:53:26;;;;;;;29.33;17.23;;;;;;;7.85;100.00;100798.09;5061608;28;21186;-64
2023/02/03 02:55:53;;;;;;;25.03;18.23;;;;;;;7.97;100.00;100799.88;5077417;28;20466;-64
2023/02/03 02:58:21;;;;;;;24.70;17.00;;;;;;;7.89;100.00;100810.22;5064834;28;20867;-64
2023/02/03 03:00:48;;;;;;;26.00;17.47;;;;;;;7.97;100.00;100812.31;5066885;28;20554;-65
2023/02/03 03:03:16;;;;;;;28.70;17.87;;;;;;;8.01;100.00;100816.50;5080894;28;20463;-65
2023/02/03 03:05:49;;;;;;;21.70;15.20;;;;;;;7.81;100.00;100810.78;5061567;28;20918;-64
2023/02/03 03:08:16;;;;;;;23.93;15.97;;;;;;;7.86;100.00;100800.66;5072685;28;20827;-65
2023/02/03 03:10:43;;;;;;;30.50;17.73;;;;;;;7.97;100.00;100817.66;5080517;28;20466;-64
2023/02/03 03:13:14;;;;;;;22.10;15.87;;;;;;;7.83;100.00;100800.88;5082032;28;20495;-64
2023/02/03 03:15:41;;;;;;;22.90;15.40;;;;;;;7.84;100.00;100788.41;5080611;28;20545;-64
2023/02/03 03:18:12;;;;;;;36.33;16.70;;;;;;;7.94;100.00;100772.63;5062154;28;20476;-64
2023/02/03 03:20:41;;;;;;;23.27;15.60;;;;;;;8.00;100.00;100788.16;5060810;28;20530;-63
2023/02/03 03:23:13;;;;;;;24.97;17.43;;;;;;;7.88;100.00;100764.13;5061397;28;20496;-63
2023/02/03 03:25:41;;;;;;;20.87;15.57;;;;;;;7.87;100.00;100767.75;5072382;28;20471;-64
2023/02/03 03:28:10;;;;;;;27.50;16.13;;;;;;;7.80;100.00;100773.63;5060836;28;20463;-63
2023/02/03 03:30:39;;;;;;;21.87;15.40;;;;;;;7.94;100.00;100773.47;5061181;28;20475;-63
2023/02/03 03:33:06;;;;;;;27.23;16.50;;;;;;;7.98;100.00;100763.44;5068190;28;20488;-64
2023/02/03 03:35:38;;;;;;;29.10;16.47;;;;;;;8.04;100.00;100768.34;5060473;28;20470;-63
2023/02/03 03:38:10;;;;;;;28.50;14.50;;;;;;;8.04;100.00;100763.03;5053519;28;20452;-64
2023/02/03 03:40:41;;;;;;;28.40;16.37;;;;;;;8.00;100.00;100769.50;5060727;28;21030;-63
2023/02/03 03:43:13;;;;;;;22.07;13.53;;;;;;;8.03;100.00;100762.16;5061551;28;21030;-64
2023/02/03 03:45:44;;;;;;;21.13;13.50;;;;;;;8.02;100.00;100764.91;5060805;28;20482;-64
2023/02/03 03:48:14;;;;;;;23.37;14.77;;;;;;;7.91;100.00;100773.69;5073837;28;20445;-63
2023/02/03 03:50:43;;;;;;;23.83;13.13;;;;;;;8.01;100.00;100763.25;5079632;28;20498;-63
2023/02/03 03:53:13;;;;;;;23.97;13.97;;;;;;;7.97;100.00;100743.97;5060512;28;20460;-64
2023/02/03 03:55:40;;;;;;;24.10;14.23;;;;;;;7.93;100.00;100753.13;5072058;28;20497;-63
2023/02/03 03:58:09;;;;;;;25.57;14.50;;;;;;;8.05;100.00;100746.91;5080381;28;20938;-63
2023/02/03 04:00:38;;;;;;;18.27;13.00;;;;;;;8.02;100.00;100748.94;5080881;28;20489;-63
2023/02/03 04:03:07;;;;;;;20.07;12.77;;;;;;;8.08;100.00;100754.69;5080001;28;20485;-65
2023/02/03 04:05:34;;;;;;;21.23;11.00;;;;;;;7.86;100.00;100741.22;5080748;28;20475;-63
2023/02/03 04:08:02;;;;;;;17.33;11.80;;;;;;;8.04;100.00;100753.22;5079947;28;20462;-63
2023/02/03 04:10:34;;;;;;;21.50;12.13;;;;;;;8.00;100.00;100741.09;5075059;28;20467;-63
2023/02/03 04:13:02;;;;;;;17.80;11.87;;;;;;;8.00;100.00;100751.75;5060703;28;20448;-63
2023/02/03 04:15:29;;;;;;;17.17;12.43;;;;;;;8.00;100.00;100750.88;5060573;28;20463;-63
2023/02/03 04:17:56;;;;;;;14.50;12.33;;;;;;;8.01;100.00;100753.44;5075953;28;20468;-64
2023/02/03 04:20:23;;;;;;;18.90;11.93;;;;;;;8.09;100.00;100753.72;5076423;28;20456;-63
2023/02/03 04:22:49;;;;;;;14.10;11.80;;;;;;;7.96;100.00;100744.09;5060320;28;20491;-63
2023/02/03 04:25:16;;;;;;;17.00;11.23;;;;;;;7.99;100.00;100742.03;5060665;28;20456;-64
2023/02/03 04:27:44;;;;;;;19.53;10.37;;;;;;;8.01;100.00;100744.59;5071941;28;20465;-63
2023/02/03 04:30:17;;;;;;;13.37;11.13;;;;;;;8.10;100.00;100738.59;5078165;28;20446;-63
2023/02/03 04:32:43;;;;;;;16.33;9.50;;;;;;;7.91;100.00;100734.59;5060653;28;21042;-63
2023/02/03 04:35:10;;;;;;;17.50;10.30;;;;;;;7.90;100.00;100732.91;5076796;28;20476;-64
2023/02/03 04:37:37;;;;;;;16.33;9.43;;;;;;;7.89;100.00;100731.19;5071203;28;20456;-63
2023/02/03 04:40:04;;;;;;;16.70;10.27;;;;;;;7.83;100.00;100721.00;5060334;28;20480;-63
2023/02/03 04:42:31;;;;;;;13.53;10.47;;;;;;;8.06;100.00;100729.13;5059408;28;20583;-63
2023/02/03 04:44:59;;;;;;;23.27;10.17;;;;;;;8.03;100.00;100732.84;5069231;28;20459;-63
2023/02/03 04:47:25;;;;;;;13.70;10.30;;;;;;;7.96;100.00;100731.59;5064611;28;20495;-63
2023/02/03 04:49:52;;;;;;;21.13;10.87;;;;;;;8.13;100.00;100734.88;5075214;28;20452;-63
2023/02/03 04:52:18;;;;;;;22.20;9.40;;;;;;;8.14;100.00;100734.72;5074348;28;20487;-63
2023/02/03 04:54:45;;;;;;;17.20;10.97;;;;;;;8.01;100.00;100732.13;5073536;28;20469;-63
2023/02/03 04:57:12;;;;;;;15.67;9.47;;;;;;;8.21;100.00;100711.16;5059345;28;20480;-63
2023/02/03 04:59:38;;;;;;;15.00;9.60;;;;;;;8.13;100.00;100709.06;5060329;28;20552;-63
2023/02/03 05:02:07;;;;;;;16.47;9.70;;;;;;;8.08;100.00;100697.91;5059312;28;20510;-64
2023/02/03 05:04:34;;;;;;;14.63;8.93;;;;;;;8.11;100.00;100703.00;5059781;28;20458;-64
2023/02/03 05:07:00;;;;;;;14.47;8.10;;;;;;;7.94;100.00;100693.59;5058739;28;20507;-64
2023/02/03 05:09:27;;;;;;;18.40;9.67;;;;;;;7.95;100.00;100675.81;5064287;28;20479;-66
2023/02/03 05:11:54;;;;;;;12.43;9.00;;;;;;;8.14;100.00;100689.44;5063051;28;20476;-65
2023/02/03 05:14:21;;;;;;;10.50;7.90;;;;;;;8.22;100.00;100702.22;5064115;28;21035;-65
2023/02/03 05:16:47;;;;;;;17.23;10.27;;;;;;;8.04;100.00;100707.94;5063617;28;20478;-64
2023/02/03 05:19:15;;;;;;;12.53;8.80;;;;;;;8.04;100.00;100702.63;5058658;28;20456;-64
2023/02/03 05:21:42;;;;;;;12.73;8.13;;;;;;;8.09;100.00;100697.81;5050082;28;20502;-65
2023/02/03 05:24:09;;;;;;;16.20;8.30;;;;;;;8.09;100.00;100692.47;5063290;28;20498;-65
2023/02/03 05:26:36;;;;;;;11.17;8.20;;;;;;;8.06;100.00;100682.03;5059114;28;20487;-65
2023/02/03 05:29:02;;;;;;;19.23;9.13;;;;;;;8.13;100.00;100705.56;5060978;28;20511;-64
2023/02/03 05:31:29;;;;;;;10.97;8.43;;;;;;;8.03;100.00;100686.75;5062645;28;20506;-64
2023/02/03 05:33:56;;;;;;;20.60;9.50;;;;;;;8.03;100.00;100686.75;5076642;28;20513;-62
2023/02/03 05:36:24;;;;;;;16.47;8.90;;;;;;;8.00;100.00;100677.19;5063073;28;20529;-61
2023/02/03 05:38:50;;;;;;;12.47;8.80;;;;;;;8.05;100.00;100679.50;5063411;28;20486;-61
2023/02/03 05:44:01;;;;;;;15.27;8.63;;;;;;;8.19;100.00;100699.78;5060067;28;20525;-62
2023/02/03 05:46:28;;;;;;;14.77;7.70;;;;;;;8.14;100.00;100688.59;5063080;28;20533;-62
2023/02/03 05:48:54;;;;;;;14.53;8.43;;;;;;;8.14;100.00;100681.47;5072438;28;20481;-62
2023/02/03 05:51:21;;;;;;;16.33;7.60;;;;;;;8.12;100.00;100688.72;5058735;28;21081;-62
2023/02/03 05:53:49;;;;;;;11.47;7.53;;;;;;;8.09;100.00;100686.31;5068465;28;21008;-62
2023/02/03 05:56:16;;;;;;;12.50;8.40;;;;;;;8.16;100.00;100692.00;5061351;28;20911;-62
2023/02/03 05:58:43;;;;;;;13.53;8.43;;;;;;;8.15;100.00;100690.31;5068061;28;20468;-62
2023/02/03 06:01:10;;;;;;;9.87;7.93;;;;;;;8.08;100.00;100690.75;5063625;28;20546;-62
2023/02/03 06:03:37;;;;;;;10.17;7.97;;;;;;;8.06;100.00;100692.69;5062857;28;20482;-64
2023/02/03 06:06:03;;;;;;;18.50;8.17;;;;;;;7.86;100.00;100685.31;5061726;28;20531;-62
2023/02/03 06:08:30;;;;;;;14.60;9.90;;;;;;;7.96;100.00;100693.50;5062160;28;20456;-62
2023/02/03 06:11:01;;;;;;;14.97;8.53;;;;;;;7.84;100.00;100693.41;5062320;28;20479;-62
2023/02/03 06:13:28;;;;;;;11.83;7.97;;;;;;;7.70;100.00;100689.09;5074170;28;20472;-62
2023/02/03 06:15:55;;;;;;;15.10;8.00;;;;;;;7.70;100.00;100690.91;5075157;28;20511;-62
2023/02/03 06:18:21;;;;;;;12.20;8.07;;;;;;;7.61;100.00;100687.09;5062694;28;20466;-62
2023/02/03 06:20:48;;;;;;;11.63;7.37;;;;;;;7.56;100.00;100693.72;5061202;28;20498;-62
2023/02/03 06:23:16;;;;;;;14.30;8.37;;;;;;;7.45;100.00;100686.53;5072891;28;20510;-62
2023/02/03 06:25:42;;;;;;;10.43;8.13;;;;;;;7.56;100.00;100683.09;5066454;28;20474;-62
2023/02/03 06:28:10;;;;;;;17.90;9.10;;;;;;;7.48;100.00;100691.59;5065116;28;20902;-62
2023/02/03 06:30:37;;;;;;;10.57;8.53;;;;;;;7.49;100.00;100693.31;5073252;28;21085;-62
2023/02/03 06:33:04;;;;;;;10.93;8.57;;;;;;;7.43;100.00;100697.28;5077366;28;20457;-62
2023/02/03 06:35:31;;;;;;;15.43;9.53;;;;;;;7.46;100.00;100702.34;5062213;28;20480;-62
2023/02/03 06:37:57;;;;;;;14.10;8.77;;;;;;;7.48;100.00;100684.50;5075328;28;20499;-62
2023/02/03 06:40:24;;;;;;;12.13;8.60;;;;;;;7.49;100.00;100688.00;5080798;28;20528;-63
2023/02/03 06:42:51;;;;;;;11.70;9.80;;;;;;;7.48;100.00;100689.81;5081980;28;20556;-63
2023/02/03 06:45:19;;;;;;;13.13;10.37;;;;;;;7.37;100.00;100680.91;5067557;28;20489;-62
2023/02/03 06:47:46;;;;;;;12.13;8.70;;;;;;;7.39;100.00;100678.97;5062543;28;20474;-62
2023/02/03 06:50:14;;;;;;;15.10;9.83;;;;;;;7.45;100.00;100681.22;5061414;28;20431;-63
2023/02/03 06:52:40;;;;;;;18.43;9.17;;;;;;;7.40;100.00;100693.97;5080348;28;20446;-62
2023/02/03 06:55:08;;;;;;;18.33;9.20;;;;;;;7.47;100.00;100688.09;5063148;28;20896;-64
2023/02/03 06:57:34;;;;;;;17.40;9.47;;;;;;;7.52;100.00;100693.94;5065231;28;20457;-63
2023/02/03 07:00:01;;;;;;;17.10;9.20;;;;;;;7.50;100.00;100698.53;5078092;28;20483;-62
2023/02/03 07:02:29;;;;;;;13.00;11.47;;;;;;;7.46;100.00;100682.88;5061975;28;20505;-62
2023/02/03 07:04:55;;;;;;;12.27;9.47;;;;;;;7.42;100.00;100690.25;5061787;28;20961;-62
2023/02/03 07:07:27;;;;;;;13.03;9.20;;;;;;;7.50;100.00;100685.22;5061286;28;20490;-63
2023/02/03 07:09:54;;;;;;;12.80;9.20;;;;;;;7.50;100.00;100698.53;5062080;28;20452;-63
2023/02/03 07:12:20;;;;;;;12.90;9.50;;;;;;;7.58;100.00;100702.44;5061338;28;20498;-63
2023/02/03 07:14:47;;;;;;;14.23;10.33;;;;;;;7.58;100.00;100692.66;5062103;28;20553;-64
2023/02/03 07:17:14;;;;;;;16.30;10.27;;;;;;;7.65;100.00;100701.88;5081438;28;20474;-63
2023/02/03 07:19:42;;;;;;;13.40;8.67;;;;;;;7.64;100.00;100688.72;5066022;28;20478;-63
2023/02/03 07:22:09;;;;;;;13.83;9.70;;;;;;;7.56;100.00;100693.72;5061183;28;20487;-64
2023/02/03 07:24:36;;;;;;;11.30;8.60;;;;;;;7.61;100.00;100686.28;5069525;28;20477;-63
2023/02/03 07:27:02;;;;;;;9.37;8.07;;;;;;;7.57;100.00;100682.09;5080813;28;20474;-63
2023/02/03 07:29:29;;;;;;;13.50;10.00;;;;;;;7.68;100.00;100672.41;5077495;28;20533;-63
2023/02/03 07:31:56;;;;;;;9.70;8.70;;;;;;;7.53;100.00;100665.53;5060787;28;20500;-62
2023/02/03 07:34:22;;;;;;;14.83;12.40;;;;;;;7.58;100.00;100671.34;5061744;28;20460;-63
2023/02/03 07:36:50;;;;;;;12.40;10.30;;;;;;;7.64;100.00;100678.91;5061286;28;20512;-62
2023/02/03 07:39:17;;;;;;;14.33;11.00;;;;;;;7.54;100.00;100678.72;5061557;28;20479;-62
2023/02/03 07:41:44;;;;;;;17.33;10.13;;;;;;;7.57;100.00;100675.00;5077298;28;20489;-63
2023/02/03 07:44:10;;;;;;;13.53;10.20;;;;;;;7.71;100.00;100658.88;5081260;28;20486;-63
2023/02/03 07:46:43;;;;;;;19.33;10.73;;;;;;;7.72;100.00;100657.06;5081035;28;20569;-63
2023/02/03 07:49:10;;;;;;;15.53;9.30;;;;;;;7.62;100.00;100661.34;5062690;28;20450;-63
2023/02/03 07:51:36;;;;;;;16.37;10.03;;;;;;;7.66;100.00;100661.03;5060678;28;20483;-63
2023/02/03 07:54:05;;;;;;;17.10;11.37;;;;;;;7.67;100.00;100653.88;5064833;28;20510;-63
2023/02/03 07:56:31;;;;;;;16.77;10.60;;;;;;;7.65;100.00;100658.47;5068669;28;20506;-62
2023/02/03 07:58:58;;;;;;;17.30;11.37;;;;;;;7.66;100.00;100649.53;5081015;28;20431;-62
2023/02/03 08:01:26;;;;;;;18.13;10.90;;;;;;;7.67;100.00;100676.03;5070478;28;20514;-63
2023/02/03 08:03:52;;;;;;;22.43;10.30;;;;;;;7.70;100.00;100661.63;5060577;28;20574;-62
2023/02/03 08:06:19;;;;;;;11.77;9.13;;;;;;;7.67;100.00;100676.03;5058737;28;20560;-62
2023/02/03 08:08:46;;;;;;;18.40;10.50;;;;;;;7.72;100.00;100689.84;5064716;28;20483;-63
2023/02/03 08:11:14;;;;;;;16.73;10.87;;;;;;;7.73;100.00;100688.03;5060493;28;20477;-62
2023/02/03 08:13:40;;;;;;;11.40;9.80;;;;;;;7.68;100.00;100692.84;5060258;28;21010;-63
2023/02/03 08:16:07;;;;;;;15.47;10.13;;;;;;;7.68;100.00;100680.38;5060590;28;20484;-62
2023/02/03 08:18:34;;;;;;;13.87;10.33;;;;;;;7.68;100.00;100688.38;5061414;28;20547;-62
2023/02/03 08:21:02;;;;;;;18.67;10.07;;;;;;;7.69;100.00;100678.56;5079093;28;20470;-63
2023/02/03 08:23:29;;;;;;;16.57;11.17;;;;;;;7.71;100.00;100680.16;5070597;28;20490;-63
2023/02/03 08:25:56;;;;;;;14.30;8.93;;;;;;;7.58;100.00;100665.19;5058614;28;20503;-62
2023/02/03 08:28:24;;;;;;;13.80;9.80;;;;;;;7.73;100.00;100678.22;5060679;28;20503;-62
2023/02/03 08:30:50;;;;;;;14.10;9.07;;;;;;;7.72;100.00;100675.69;5066303;28;20526;-62
2023/02/03 08:33:17;;;;;;;14.20;9.03;;;;;;;7.61;100.00;100662.31;5080715;28;20443;-62
2023/02/03 08:35:46;;;;;;;11.43;9.07;;;;;;;7.63;100.00;100657.72;5061466;28;20510;-62
2023/02/03 08:38:12;;;;;;;13.40;9.60;;;;;;;7.73;100.00;100653.44;5072132;28;20463;-62
2023/02/03 08:40:39;;;;;;;15.27;10.87;;;;;;;7.83;100.00;100661.56;5079849;28;20921;-62
2023/02/03 08:43:06;;;;;;;22.03;11.07;;;;;;;7.84;100.00;100661.47;5082691;28;20540;-62
2023/02/03 08:45:34;;;;;;;17.50;11.23;;;;;;;7.84;100.00;100661.47;5082746;28;20481;-62
2023/02/03 08:48:00;;;;;;;16.43;11.37;;;;;;;7.95;100.00;100662.50;5083774;28;20480;-62
2023/02/03 08:50:27;;;;;;;20.83;11.53;;;;;;;7.97;100.00;100663.22;5083906;28;20485;-62
2023/02/03 08:52:54;;;;;;;22.97;12.77;;;;;;;7.91;100.00;100662.72;5066951;28;20968;-62
2023/02/03 08:55:20;;;;;;;23.77;11.20;;;;;;;7.97;100.00;100665.88;5067939;28;20454;-62
2023/02/03 08:57:47;;;;;;;26.43;11.87;;;;;;;7.88;100.00;100652.31;5083459;28;20468;-62
2023/02/03 09:00:15;;;;;;;20.63;12.27;;;;;;;7.98;100.00;100656.94;5079075;28;20440;-62
2023/02/03 09:02:51;;;;;;;26.27;13.00;;;;;;;8.10;100.00;100629.41;5063154;28;20484;-62
2023/02/03 09:05:17;;;;;;;21.23;12.63;;;;;;;8.04;100.00;100622.72;5063957;28;20451;-62
2023/02/03 09:07:44;;;;;;;20.60;14.27;;;;;;;8.07;100.00;100637.63;5062946;28;20511;-62
2023/02/03 09:10:11;;;;;;;25.90;13.10;;;;;;;8.04;100.00;100656.50;5062680;28;20444;-62
2023/02/03 09:12:38;;;;;;;21.60;13.07;;;;;;;8.05;100.00;100639.53;5062141;28;20451;-62
2023/02/03 09:15:05;;;;;;;20.67;12.60;;;;;;;8.13;100.00;100641.66;5063172;28;20440;-62
2023/02/03 09:17:32;;;;;;;19.13;13.13;;;;;;;8.18;100.00;100655.47;5062940;28;20486;-62
2023/02/03 09:20:00;;;;;;;16.63;12.60;;;;;;;8.16;100.00;100660.91;5062616;28;20459;-62
2023/02/03 09:22:26;;;;;;;19.13;12.27;;;;;;;8.15;100.00;100650.38;5061975;28;20538;-62
2023/02/03 09:24:53;;;;;;;18.43;11.93;;;;;;;8.10;100.00;100667.53;5062580;28;20524;-62
2023/02/03 09:27:19;;;;;;;16.60;11.40;;;;;;;8.16;100.00;100657.38;5072214;28;20510;-63
2023/02/03 09:29:46;;;;;;;21.10;12.60;;;;;;;8.14;100.00;100667.31;5082710;28;20538;-63
2023/02/03 09:32:13;;;;;;;20.67;11.00;;;;;;;7.98;100.00;100655.13;5062641;28;20495;-62
2023/02/03 09:34:40;;;;;;;19.93;11.23;;;;;;;8.20;100.00;100664.19;5069851;28;20451;-62
2023/02/03 09:37:08;;;;;;;22.70;11.73;;;;;;;8.05;100.00;100642.22;5079672;28;20577;-63
2023/02/03 09:39:35;;;;;;;21.37;11.53;;;;;;;8.16;100.00;100646.72;5062161;28;20493;-62
2023/02/03 09:42:11;;;;;;;16.30;10.90;;;;;;;8.04;100.00;100651.19;5061095;28;20487;-62
2023/02/03 09:44:42;;;;;;;18.43;10.03;;;;;;;8.11;100.00;100644.44;5062550;28;20498;-62
2023/02/03 09:47:12;;;;;;;20.03;11.37;;;;;;;8.18;100.00;100660.81;5062084;28;20508;-63
2023/02/03 09:49:41;;;;;;;26.33;11.03;;;;;;;8.04;100.00;100649.34;5080223;28;20442;-62
2023/02/03 09:52:14;;;;;;;18.50;9.93;;;;;;;8.18;100.00;100656.31;5081114;28;20514;-63
2023/02/03 09:54:44;;;;;;;26.83;10.70;;;;;;;8.19;100.00;100644.69;5080872;28;20486;-63
2023/02/03 09:57:16;;;;;;;19.67;9.57;;;;;;;8.30;100.00;100673.19;5081186;28;20482;-61
2023/02/03 09:59:42;;;;;;;13.97;9.30;;;;;;;8.29;100.00;100667.00;5065599;28;20451;-62
2023/02/03 10:02:21;;;;;;;20.43;11.17;;;;;;;8.39;100.00;100668.97;5063470;28;20511;-61
2023/02/03 10:04:54;;;;;;;17.67;10.27;;;;;;;8.32;100.00;100657.09;5062519;28;20511;-61
2023/02/03 10:07:27;;;;;;;14.00;9.47;;;;;;;8.31;100.00;100656.22;5062666;28;21183;-61
2023/02/03 10:10:01;;;;;;;20.40;10.37;;;;;;;8.33;100.00;100661.44;5076420;28;20454;-62
2023/02/03 10:12:43;;;;;;;14.87;9.30;;;;;;;8.13;100.00;100666.47;5074815;28;20478;-61
2023/02/03 10:15:22;;;;;;;14.97;10.33;;;;;;;8.23;100.00;100671.97;5061588;28;20467;-61
2023/02/03 10:17:53;;;;;;;15.77;10.00;;;;;;;8.18;100.00;100684.78;5079364;28;20476;-61
2023/02/03 10:20:23;;;;;;;18.93;9.00;;;;;;;8.34;100.00;100689.78;5075302;28;20472;-62
2023/02/03 10:22:54;;;;;;;13.53;8.10;;;;;;;8.36;100.00;100699.34;5061793;28;20488;-62
2023/02/03 10:25:26;;;;;;;13.23;7.93;;;;;;;8.28;100.00;100704.41;5061412;28;20518;-62
2023/02/03 10:27:53;;;;;;;9.03;7.40;;;;;;;8.16;100.00;100708.84;5074435;28;20447;-61
2023/02/03 10:30:21;;;;;;;10.30;7.90;;;;;;;8.23;100.00;100707.44;5080804;28;20483;-61
2023/02/03 10:32:49;;;;;;;12.10;7.50;;;;;;;8.29;100.00;100704.28;5081933;28;20441;-62
2023/02/03 10:35:16;;;;;;;19.67;8.00;;;;;;;8.28;100.00;100705.28;5079200;28;20508;-62
2023/02/03 10:37:45;;;;;;;15.30;8.43;;;;;;;8.29;100.00;100698.13;5080793;28;20864;-62
2023/02/03 10:40:14;;;;;;;15.30;8.03;;;;;;;8.27;100.00;100700.91;5080820;28;20977;-62
2023/02/03 10:45:27;;;;;;;20.10;7.63;;;;;;;8.32;100.00;100705.06;5060428;28;20470;-62
2023/02/03 10:47:55;;;;;;;19.67;6.70;;;;;;;8.30;100.00;100718.47;5061585;28;21111;-62
2023/02/03 10:50:30;;;;;;;11.90;6.60;;;;;;;8.37;100.00;100706.41;5060912;28;20456;-62
2023/02/03 10:53:20;;;;;;;12.13;6.50;;;;;;;8.39;100.00;100709.78;5061049;28;20463;-62
2023/02/03 10:55:49;;;;;;;12.93;6.80;;;;;;;8.50;100.00;100701.00;5071728;28;20475;-61
2023/02/03 10:58:27;;;;;;;18.70;6.60;;;;;;;8.48;100.00;100709.13;5077942;28;20461;-62
2023/02/03 11:00:56;;;;;;;19.20;5.60;;;;;;;8.43;100.00;100697.97;5072395;28;20939;-62
2023/02/03 11:03:25;;;;;;;13.73;5.17;;;;;;;8.52;100.00;100701.75;5060001;28;20619;-61
2023/02/03 11:06:07;;;;;;;16.60;6.20;;;;;;;8.54;100.00;100712.28;5059427;28;20478;-62
2023/02/03 11:08:34;;;;;;;9.90;5.00;;;;;;;8.60;100.00;100718.00;5061171;28;20467;-62
2023/02/03 11:11:06;;;;;;;9.20;4.83;;;;;;;8.64;100.00;100722.13;5080023;28;20481;-62
2023/02/03 11:13:33;;;;;;;11.40;4.23;;;;;;;8.70;100.00;100733.28;5079691;28;20452;-62
2023/02/03 11:16:01;;;;;;;10.00;4.73;;;;;;;8.64;100.00;100742.63;5080159;28;20550;-63
2023/02/03 11:18:52;;;;;;;14.00;4.20;;;;;;;8.67;100.00;100745.06;5080241;28;20430;-62
2023/02/03 11:21:21;;;;;;;11.50;4.47;;;;;;;8.63;100.00;100763.09;5025731;28;20470;-62
2023/02/03 11:23:53;;;;;;;13.00;4.87;;;;;;;8.61;100.00;100762.38;5067051;28;20490;-63